Wetterdaten: aktuell Mittwoch, 23.05.2018 09:05
Datum Zeit Temp. auen Feuchte A. Luftdruck Regen Wind Richtung Richtung Sonnenschein Solar Windben
23.05.2018 09:05 16,2 C 82 % 1014,8 hPa 0,0 l/m 0,0 km/h (0 Bft) NO 42 5 min 593 W/m 0,0 km/h (0 Bft)
23.05.2018 09:00 16,1 C 82 % 1014,8 hPa 0,0 l/m 1,4 km/h (1 Bft) NO 41 0 min 215 W/m 4,8 km/h (1 Bft)
23.05.2018 08:55 16,1 C 83 % 1014,8 hPa 0,0 l/m 3,4 km/h (1 Bft) NO 41 5 min 534 W/m 6,4 km/h (2 Bft)
23.05.2018 08:50 16,2 C 85 % 1014,8 hPa 0,0 l/m 4,0 km/h (1 Bft) NO 41 5 min 468 W/m 8,0 km/h (2 Bft)
23.05.2018 08:45 16,2 C 86 % 1014,8 hPa 0,0 l/m 0,9 km/h (0 Bft) NO 35 0 min 195 W/m 6,4 km/h (2 Bft)
23.05.2018 08:40 16,0 C 86 % 1014,9 hPa 0,0 l/m 0,6 km/h (0 Bft) N-NW 335 5 min 531 W/m 3,2 km/h (1 Bft)
23.05.2018 08:35 15,8 C 86 % 1014,9 hPa 0,0 l/m 1,3 km/h (1 Bft) N-NW 335 5 min 513 W/m 6,4 km/h (2 Bft)
23.05.2018 08:30 15,6 C 86 % 1014,9 hPa 0,0 l/m 0,3 km/h (0 Bft) N-NO 16 5 min 521 W/m 4,8 km/h (1 Bft)
23.05.2018 08:25 15,6 C 86 % 1014,9 hPa 0,0 l/m 1,8 km/h (1 Bft) N-NO 12 5 min 460 W/m 6,4 km/h (2 Bft)
23.05.2018 08:20 15,4 C 88 % 1014,9 hPa 0,0 l/m 0,1 km/h (0 Bft) N 11 5 min 249 W/m 3,2 km/h (1 Bft)
23.05.2018 08:15 15,2 C 87 % 1014,9 hPa 0,0 l/m 0,1 km/h (0 Bft) N-NO 25 5 min 252 W/m 3,2 km/h (1 Bft)
23.05.2018 08:10 15,1 C 88 % 1014,8 hPa 0,0 l/m 1,3 km/h (1 Bft) N-NO 25 5 min 314 W/m 3,2 km/h (1 Bft)
23.05.2018 08:05 14,9 C 89 % 1014,8 hPa 0,0 l/m 3,6 km/h (1 Bft) N-NO 25 5 min 274 W/m 6,4 km/h (2 Bft)
23.05.2018 08:00 14,9 C 89 % 1014,8 hPa 0,0 l/m 4,8 km/h (1 Bft) N-NO 26 5 min 242 W/m 8,0 km/h (2 Bft)
23.05.2018 07:55 14,9 C 89 % 1014,7 hPa 0,0 l/m 4,0 km/h (1 Bft) N-NO 26 5 min 228 W/m 6,4 km/h (2 Bft)
23.05.2018 07:50 14,9 C 90 % 1014,7 hPa 0,0 l/m 5,3 km/h (1 Bft) N-NO 26 5 min 219 W/m 9,7 km/h (2 Bft)
23.05.2018 07:45 14,8 C 90 % 1014,7 hPa 0,0 l/m 3,5 km/h (1 Bft) N 6 5 min 191 W/m 6,4 km/h (2 Bft)
23.05.2018 07:40 14,7 C 91 % 1014,7 hPa 0,0 l/m 0,1 km/h (0 Bft) N 4 0 min 178 W/m 1,6 km/h (1 Bft)
23.05.2018 07:35 14,6 C 91 % 1014,7 hPa 0,0 l/m 0,0 km/h (0 Bft) N 4 0 min 153 W/m 0,0 km/h (0 Bft)
23.05.2018 07:30 14,6 C 91 % 1014,7 hPa 0,0 l/m 0,0 km/h (0 Bft) N 4 0 min 135 W/m 0,0 km/h (0 Bft)
23.05.2018 07:25 14,4 C 91 % 1014,6 hPa 0,0 l/m 0,0 km/h (0 Bft) N 4 0 min 120 W/m 0,0 km/h (0 Bft)
23.05.2018 07:20 14,4 C 91 % 1014,6 hPa 0,0 l/m 0,9 km/h (0 Bft) N 4 0 min 114 W/m 4,8 km/h (1 Bft)
23.05.2018 07:15 14,4 C 91 % 1014,6 hPa 0,0 l/m 1,6 km/h (1 Bft) N 4 0 min 92 W/m 4,8 km/h (1 Bft)
23.05.2018 07:10 14,4 C 91 % 1014,4 hPa 0,0 l/m 3,8 km/h (1 Bft) N 4 0 min 71 W/m 8,0 km/h (2 Bft)
23.05.2018 07:05 14,4 C 91 % 1014,4 hPa 0,0 l/m 2,4 km/h (1 Bft) N 4 0 min 75 W/m 6,4 km/h (2 Bft)
23.05.2018 07:00 14,4 C 91 % 1014,4 hPa 0,0 l/m 0,1 km/h (0 Bft) N 360 0 min 77 W/m 1,6 km/h (1 Bft)
23.05.2018 06:55 14,4 C 91 % 1014,4 hPa 0,0 l/m 0,0 km/h (0 Bft) N 360 0 min 79 W/m 1,6 km/h (1 Bft)
23.05.2018 06:50 14,4 C 91 % 1014,4 hPa 0,0 l/m 0,5 km/h (0 Bft) N 360 0 min 77 W/m 4,8 km/h (1 Bft)
23.05.2018 06:45 14,3 C 92 % 1014,4 hPa 0,0 l/m 2,0 km/h (1 Bft) N 360 0 min 77 W/m 6,4 km/h (2 Bft)
23.05.2018 06:40 14,2 C 92 % 1014,3 hPa 0,0 l/m 2,1 km/h (1 Bft) N 360 0 min 66 W/m 4,8 km/h (1 Bft)
23.05.2018 06:35 14,1 C 92 % 1014,3 hPa 0,0 l/m 3,2 km/h (1 Bft) N 360 0 min 52 W/m 4,8 km/h (1 Bft)
23.05.2018 06:30 14,1 C 92 % 1014,3 hPa 0,0 l/m 3,4 km/h (1 Bft) N 360 0 min 35 W/m 4,8 km/h (1 Bft)
23.05.2018 06:25 14,0 C 92 % 1014,1 hPa 0,0 l/m 3,1 km/h (1 Bft) N 360 0 min 30 W/m 6,4 km/h (2 Bft)
23.05.2018 06:20 13,9 C 92 % 1014,1 hPa 0,0 l/m 4,8 km/h (1 Bft) N 360 0 min 24 W/m 6,4 km/h (2 Bft)
23.05.2018 06:15 14,0 C 92 % 1014,1 hPa 0,0 l/m 4,3 km/h (1 Bft) N 360 0 min 22 W/m 6,4 km/h (2 Bft)
23.05.2018 06:10 14,0 C 92 % 1014,0 hPa 0,0 l/m 3,6 km/h (1 Bft) N 360 0 min 19 W/m 6,4 km/h (2 Bft)
23.05.2018 06:05 14,0 C 92 % 1014,0 hPa 0,0 l/m 4,0 km/h (1 Bft) N 360 0 min 17 W/m 4,8 km/h (1 Bft)
23.05.2018 06:00 14,1 C 92 % 1014,0 hPa 0,0 l/m 3,2 km/h (1 Bft) N 360 0 min 15 W/m 6,4 km/h (2 Bft)
23.05.2018 05:55 14,1 C 91 % 1013,9 hPa 0,0 l/m 3,6 km/h (1 Bft) N 360 0 min 15 W/m 6,4 km/h (2 Bft)
23.05.2018 05:50 14,2 C 91 % 1013,9 hPa 0,0 l/m 0,7 km/h (0 Bft) N 360 0 min 13 W/m 4,8 km/h (1 Bft)
23.05.2018 05:45 14,2 C 91 % 1013,9 hPa 0,0 l/m 0,0 km/h (0 Bft) N 360 0 min 7 W/m 0,0 km/h (0 Bft)
23.05.2018 05:40 14,2 C 91 % 1014,0 hPa 0,0 l/m 0,2 km/h (0 Bft) N 360 0 min 0 W/m 3,2 km/h (1 Bft)
23.05.2018 05:35 14,2 C 91 % 1014,0 hPa 0,0 l/m 3,4 km/h (1 Bft) N 360 0 min 0 W/m 4,8 km/h (1 Bft)
23.05.2018 05:30 14,2 C 91 % 1014,0 hPa 0,0 l/m 3,9 km/h (1 Bft) N 360 0 min 0 W/m 4,8 km/h (1 Bft)
23.05.2018 05:25 14,2 C 91 % 1014,1 hPa 0,0 l/m 3,4 km/h (1 Bft) N 360 0 min 0 W/m 4,8 km/h (1 Bft)
23.05.2018 05:20 14,3 C 90 % 1014,1 hPa 0,0 l/m 3,9 km/h (1 Bft) N 360 0 min 0 W/m 6,4 km/h (2 Bft)
23.05.2018 05:15 14,3 C 91 % 1014,1 hPa 0,0 l/m 3,7 km/h (1 Bft) N 360 0 min 0 W/m 6,4 km/h (2 Bft)
23.05.2018 05:10 14,3 C 91 % 1014,1 hPa 0,0 l/m 4,7 km/h (1 Bft) N 360 0 min 0 W/m 6,4 km/h (2 Bft)
23.05.2018 05:05 14,3 C 91 % 1014,1 hPa 0,0 l/m 3,2 km/h (1 Bft) N 10 0 min 0 W/m 4,8 km/h (1 Bft)
23.05.2018 05:00 14,4 C 91 % 1014,1 hPa 0,0 l/m 3,9 km/h (1 Bft) N 10 0 min 0 W/m 4,8 km/h (1 Bft)
23.05.2018 04:55 14,4 C 91 % 1014,2 hPa 0,0 l/m 2,8 km/h (1 Bft) N 10 0 min 0 W/m 4,8 km/h (1 Bft)
23.05.2018 04:50 14,4 C 90 % 1014,2 hPa 0,0 l/m 3,5 km/h (1 Bft) N 10 0 min 0 W/m 4,8 km/h (1 Bft)
23.05.2018 04:45 14,4 C 90 % 1014,2 hPa 0,0 l/m 4,2 km/h (1 Bft) N 10 0 min 0 W/m 6,4 km/h (2 Bft)
23.05.2018 04:40 14,4 C 90 % 1014,2 hPa 0,0 l/m 3,3 km/h (1 Bft) N 9 0 min 0 W/m 4,8 km/h (1 Bft)
23.05.2018 04:35 14,4 C 90 % 1014,2 hPa 0,0 l/m 4,2 km/h (1 Bft) N 9 0 min 0 W/m 8,0 km/h (2 Bft)
23.05.2018 04:30 14,4 C 90 % 1014,2 hPa 0,0 l/m 4,3 km/h (1 Bft) N 9 0 min 0 W/m 6,4 km/h (2 Bft)
23.05.2018 04:25 14,4 C 89 % 1014,2 hPa 0,0 l/m 4,1 km/h (1 Bft) N 9 0 min 0 W/m 6,4 km/h (2 Bft)
23.05.2018 04:20 14,4 C 90 % 1014,2 hPa 0,0 l/m 3,2 km/h (1 Bft) N 9 0 min 0 W/m 4,8 km/h (1 Bft)
23.05.2018 04:15 14,4 C 90 % 1014,2 hPa 0,0 l/m 3,7 km/h (1 Bft) N 9 0 min 0 W/m 4,8 km/h (1 Bft)
23.05.2018 04:10 14,3 C 90 % 1014,2 hPa 0,0 l/m 3,0 km/h (1 Bft) N 9 0 min 0 W/m 4,8 km/h (1 Bft)
23.05.2018 04:05 14,3 C 90 % 1014,2 hPa 0,0 l/m 3,0 km/h (1 Bft) N 9 0 min 0 W/m 4,8 km/h (1 Bft)
23.05.2018 04:00 14,3 C 90 % 1014,2 hPa 0,0 l/m 2,3 km/h (1 Bft) N 9 0 min 0 W/m 3,2 km/h (1 Bft)
23.05.2018 03:55 14,4 C 90 % 1014,0 hPa 0,0 l/m 2,7 km/h (1 Bft) N 9 0 min 0 W/m 4,8 km/h (1 Bft)
23.05.2018 03:50 14,4 C 90 % 1014,0 hPa 0,0 l/m 4,1 km/h (1 Bft) N 9 0 min 0 W/m 6,4 km/h (2 Bft)
23.05.2018 03:45 14,4 C 90 % 1014,0 hPa 0,0 l/m 3,9 km/h (1 Bft) N 9 0 min 0 W/m 6,4 km/h (2 Bft)
23.05.2018 03:40 14,6 C 89 % 1014,0 hPa 0,0 l/m 5,3 km/h (1 Bft) N 9 0 min 0 W/m 8,0 km/h (2 Bft)
23.05.2018 03:35 14,6 C 89 % 1014,0 hPa 0,0 l/m 5,4 km/h (1 Bft) N 8 0 min 0 W/m 8,0 km/h (2 Bft)
23.05.2018 03:30 14,6 C 89 % 1014,0 hPa 0,0 l/m 4,4 km/h (1 Bft) N-NO 15 0 min 0 W/m 8,0 km/h (2 Bft)
23.05.2018 03:25 14,6 C 88 % 1014,1 hPa 0,0 l/m 3,7 km/h (1 Bft) NO 34 0 min 0 W/m 4,8 km/h (1 Bft)
23.05.2018 03:20 14,6 C 88 % 1014,1 hPa 0,0 l/m 3,4 km/h (1 Bft) NO 35 0 min 0 W/m 4,8 km/h (1 Bft)
23.05.2018 03:15 14,6 C 88 % 1014,1 hPa 0,0 l/m 5,1 km/h (1 Bft) NO 35 0 min 0 W/m 6,4 km/h (2 Bft)
23.05.2018 03:10 14,7 C 88 % 1014,1 hPa 0,0 l/m 1,1 km/h (1 Bft) NO 35 0 min 0 W/m 6,4 km/h (2 Bft)
23.05.2018 03:05 14,7 C 88 % 1014,1 hPa 0,0 l/m 0,0 km/h (0 Bft) NO 35 0 min 0 W/m 0,0 km/h (0 Bft)
23.05.2018 03:00 14,7 C 88 % 1014,1 hPa 0,0 l/m 0,0 km/h (0 Bft) NO 35 0 min 0 W/m 0,0 km/h (0 Bft)
23.05.2018 02:55 14,7 C 88 % 1014,1 hPa 0,0 l/m 0,0 km/h (0 Bft) NO 35 0 min 0 W/m 0,0 km/h (0 Bft)
23.05.2018 02:50 14,7 C 87 % 1014,1 hPa 0,0 l/m 0,0 km/h (0 Bft) NO 35 0 min 0 W/m 0,0 km/h (0 Bft)
23.05.2018 02:45 14,7 C 87 % 1014,1 hPa 0,0 l/m 0,0 km/h (0 Bft) NO 35 0 min 0 W/m 0,0 km/h (0 Bft)
23.05.2018 02:40 14,7 C 87 % 1014,2 hPa 0,0 l/m 0,0 km/h (0 Bft) NO 35 0 min 0 W/m 1,6 km/h (1 Bft)
23.05.2018 02:35 14,7 C 87 % 1014,2 hPa 0,0 l/m 0,0 km/h (0 Bft) NO 35 0 min 0 W/m 0,0 km/h (0 Bft)
23.05.2018 02:30 14,7 C 87 % 1014,2 hPa 0,0 l/m 0,1 km/h (0 Bft) NO 35 0 min 0 W/m 1,6 km/h (1 Bft)
23.05.2018 02:25 14,7 C 86 % 1014,3 hPa 0,0 l/m 0,0 km/h (0 Bft) NO 35 0 min 0 W/m 0,0 km/h (0 Bft)
23.05.2018 02:20 14,8 C 86 % 1014,3 hPa 0,0 l/m 0,0 km/h (0 Bft) NO 35 0 min 0 W/m 0,0 km/h (0 Bft)
23.05.2018 02:15 14,8 C 86 % 1014,3 hPa 0,0 l/m 0,0 km/h (0 Bft) NO 35 0 min 0 W/m 0,0 km/h (0 Bft)
23.05.2018 02:10 14,8 C 86 % 1014,1 hPa 0,0 l/m 0,0 km/h (0 Bft) NO 35 0 min 0 W/m 0,0 km/h (0 Bft)
23.05.2018 02:05 14,8 C 86 % 1014,1 hPa 0,0 l/m 0,0 km/h (0 Bft) NO 35 0 min 0 W/m 0,0 km/h (0 Bft)
23.05.2018 02:00 14,8 C 86 % 1014,1 hPa 0,0 l/m 1,6 km/h (1 Bft) NO 35 0 min 0 W/m 4,8 km/h (1 Bft)
23.05.2018 01:55 14,8 C 86 % 1014,1 hPa 0,0 l/m 3,2 km/h (1 Bft) NO 35 0 min 0 W/m 4,8 km/h (1 Bft)
23.05.2018 01:50 14,8 C 86 % 1014,1 hPa 0,0 l/m 1,4 km/h (1 Bft) NO 35 0 min 0 W/m 4,8 km/h (1 Bft)
23.05.2018 01:45 14,8 C 86 % 1014,1 hPa 0,0 l/m 1,0 km/h (0 Bft) NO 35 0 min 0 W/m 4,8 km/h (1 Bft)
23.05.2018 01:40 14,9 C 85 % 1014,1 hPa 0,0 l/m 2,7 km/h (1 Bft) NO 35 0 min 0 W/m 6,4 km/h (2 Bft)
23.05.2018 01:35 14,9 C 85 % 1014,1 hPa 0,0 l/m 0,0 km/h (0 Bft) NO 35 0 min 0 W/m 0,0 km/h (0 Bft)
23.05.2018 01:30 14,9 C 85 % 1014,1 hPa 0,0 l/m 0,0 km/h (0 Bft) NO 35 0 min 0 W/m 0,0 km/h (0 Bft)
23.05.2018 01:25 15,1 C 84 % 1014,2 hPa 0,0 l/m 0,8 km/h (0 Bft) NO 35 0 min 0 W/m 3,2 km/h (1 Bft)
23.05.2018 01:20 15,1 C 84 % 1014,2 hPa 0,0 l/m 3,6 km/h (1 Bft) NO 35 0 min 0 W/m 4,8 km/h (1 Bft)
23.05.2018 01:15 15,2 C 84 % 1014,2 hPa 0,0 l/m 3,5 km/h (1 Bft) NO 35 0 min 0 W/m 6,4 km/h (2 Bft)
23.05.2018 01:10 15,3 C 84 % 1014,2 hPa 0,0 l/m 1,9 km/h (1 Bft) NO 34 0 min 0 W/m 4,8 km/h (1 Bft)
23.05.2018 01:05 15,3 C 84 % 1014,2 hPa 0,0 l/m 4,1 km/h (1 Bft) NO 34 0 min 0 W/m 6,4 km/h (2 Bft)
23.05.2018 01:00 15,3 C 83 % 1014,2 hPa 0,0 l/m 4,9 km/h (1 Bft) NO 36 0 min 0 W/m 8,0 km/h (2 Bft)
23.05.2018 00:55 15,3 C 83 % 1014,1 hPa 0,0 l/m 2,6 km/h (1 Bft) NO 43 0 min 0 W/m 6,4 km/h (2 Bft)
23.05.2018 00:50 15,3 C 83 % 1014,1 hPa 0,0 l/m 3,1 km/h (1 Bft) NO 40 0 min 0 W/m 6,4 km/h (2 Bft)
23.05.2018 00:45 15,3 C 83 % 1014,1 hPa 0,0 l/m 4,2 km/h (1 Bft) O-NO 57 0 min 0 W/m 6,4 km/h (2 Bft)
23.05.2018 00:40 15,3 C 83 % 1014,2 hPa 0,0 l/m 5,1 km/h (1 Bft) O-NO 59 0 min 0 W/m 6,4 km/h (2 Bft)
23.05.2018 00:35 15,3 C 83 % 1014,2 hPa 0,0 l/m 5,6 km/h (1 Bft) NO 56 0 min 0 W/m 8,0 km/h (2 Bft)
23.05.2018 00:30 15,2 C 84 % 1014,2 hPa 0,0 l/m 5,9 km/h (2 Bft) O-NO 61 0 min 0 W/m 8,0 km/h (2 Bft)
23.05.2018 00:25 15,2 C 84 % 1014,1 hPa 0,0 l/m 5,5 km/h (1 Bft) O-NO 60 0 min 0 W/m 8,0 km/h (2 Bft)
23.05.2018 00:20 15,1 C 84 % 1014,1 hPa 0,0 l/m 4,6 km/h (1 Bft) O-NO 63 0 min 0 W/m 6,4 km/h (2 Bft)
23.05.2018 00:15 15,1 C 84 % 1014,1 hPa 0,0 l/m 5,5 km/h (1 Bft) O-NO 61 0 min 0 W/m 8,0 km/h (2 Bft)
23.05.2018 00:10 15,1 C 84 % 1014,1 hPa 0,0 l/m 6,1 km/h (2 Bft) O-NO 61 0 min 0 W/m 8,0 km/h (2 Bft)
23.05.2018 00:05 15,1 C 85 % 1014,1 hPa 0,0 l/m 6,2 km/h (2 Bft) O-NO 60 0 min 0 W/m 8,0 km/h (2 Bft)
23.05.2018 00:00 15,1 C 85 % 1014,1 hPa 0,0 l/m 4,7 km/h (1 Bft) O-NO 58 0 min 0 W/m 6,4 km/h (2 Bft)
_ Min-Zeit 06:20 09:00 05:45 - 01:30 - - - - 01:30
Minimum _ 13,9 C 82 % 1013,9 hPa - 0,0 km/h (0 Bft) - - - - 0,0 km/h (0 Bft)
_ Max-Zeit 08:45 06:00 08:15 00:00 00:05 - - 07:45 09:05 07:50
Maximum _ 16,2 C 92 % 1014,9 hPa 0,0 l/m 6,2 km/h
O-NO (2 Bft)
- - 5 min 593 W/m 9,7 km/h
N-NO (2 Bft)
Durchschnitt _ 14,7 C 88 % 1014,3 hPa #0,0 l/m 2,6 km/h (1 Bft) N - #1:15 h 184 W/m 4,7 km/h (1 Bft)